Glendale, Arizona
Current Conditions -  °F | °C
As of 5:47 PM on Tuesday 21 Oct 2014 (Local Time) from KGEU Reporting Station
Scattered Clouds Scattered Clouds  
Wind Chill: 84°   Ceiling: Unl
Heat Index: 84°   Visibility: 20mi
Dew Point: 52°   Wind: 5mph
Humidity: 33%   Direction: 180°S
Pressure: 29.8"   Gusts: NA
Location:  33.54°N, 112.18°W
Report Text: KGEU 220047Z 18004KT 20SM FEW100 SCT200 29/11 A2980
Loading
Personal Weather Stations






























Interactive Weather Map
Tropical Storm Tracking
New forecast layout! Learn more

10-Day Weather Forecast

Advertisements
Track Severe Weather on mobile